Eleni K III — 9HOA8 — position and weather

sailwx.info

Track history (hours):
 
Tides and Currents Weather Stations Pressure Air Temp Water Temp Dewpoint Dewpoint Depression Visibility Wind Speed Wind Dir Waves Ship Positions

Eleni K III

Last reported at 2017-Dec-15 00:55 UTC. Time now 2017-Dec-18 11:06 UTC.
Position N 37°60' E 024°36'.

Length 81 m; draft 3.3 m.

Type: Cargo ship. MMSI: 256203000.

Date/timePositionNaut miles runAvg speedWind from/ knotsBaromVisibWave heightAir tempDewpointWater temp
2017-Dec-15 00:55N 37°60' E 024°36'4 9.6
2017-Dec-15 00:28N 37°56' E 024°34'54 9.0
2017-Dec-14 18:29N 37°39' E 023°29'5 9.9
2017-Dec-14 18:00N 37°40' E 023°23'5 9.1
2017-Dec-14 17:31N 37°40' E 023°18'5 9.9
2017-Dec-14 17:01N 37°45' E 023°15'510.1
2017-Dec-14 16:31N 37°49' E 023°12'5 9.9
2017-Dec-14 16:00N 37°53' E 023°07'8 8.1
2017-Dec-14 14:59N 37°57' E 022°58'3 5.4
2017-Dec-14 14:30N 37°58' E 022°56'5 9.5
2017-Dec-14 14:01N 38°01' E 022°50'5 9.8
2017-Dec-14 13:30N 38°03' E 022°45'329 9.9
2017-Dec-13 04:18N 37°53' E 015°48'3 9.5
2017-Dec-13 03:57N 37°54' E 015°44'5 9.7
2017-Dec-13 03:27N 37°56' E 015°39'4 9.5
2017-Dec-13 03:00N 37°58' E 015°34'5 9.5
2017-Dec-13 02:30N 38°02' E 015°34'5 9.5
2017-Dec-13 01:59N 38°07' E 015°35'4 8.8
2017-Dec-13 01:30N 38°11' E 015°36'4 7.4
2017-Dec-13 00:58N 38°15' E 015°38'4 7.9
2017-Dec-13 00:29N 38°18' E 015°41'4 8.5
2017-Dec-13 00:00N 38°22' E 015°42'4 8.0
2017-Dec-12 23:28N 38°26' E 015°44'4 7.9
2017-Dec-12 23:00N 38°30' E 015°45'5 9.3
2017-Dec-12 22:30N 38°34' E 015°46'10 8.3
2017-Dec-12 21:16N 38°43' E 015°53'  
2017-Dec-07 15:10N 38°21' E 015°43'2 8.7
2017-Dec-07 14:54N 38°19' E 015°42'3 8.0
2017-Dec-07 14:29N 38°16' E 015°41'3 6.7
2017-Dec-07 14:00N 38°14' E 015°37'4 7.7
2017-Dec-07 13:30N 38°10' E 015°37'4 8.2
2017-Dec-07 12:58N 38°06' E 015°36'4 8.3
2017-Dec-07 12:30N 38°02' E 015°36'4 7.8
2017-Dec-07 12:00N 37°58' E 015°37'4 7.9
2017-Dec-07 11:30N 37°55' E 015°40'  
Track history (hours):
 
Tides and Currents Weather Stations Pressure Air Temp Water Temp Dewpoint Dewpoint Depression Visibility Wind Speed Wind Dir Waves Ship Positions

Eleni K III

Last reported at 2017-Dec-15 00:55 UTC. Time now 2017-Dec-18 11:06 UTC.
Position N 37°60' E 024°36'.

Length 81 m; draft 3.3 m.

Type: Cargo ship. MMSI: 256203000.

Date/timePositionNaut miles runAvg speedWind from/ knotsBaromVisibWave heightAir tempDewpointWater temp
2017-Dec-15 00:55N 37°60' E 024°36'4 9.6
2017-Dec-15 00:28N 37°56' E 024°34'54 9.0
2017-Dec-14 18:29N 37°39' E 023°29'5 9.9
2017-Dec-14 18:00N 37°40' E 023°23'5 9.1
2017-Dec-14 17:31N 37°40' E 023°18'5 9.9
2017-Dec-14 17:01N 37°45' E 023°15'510.1
2017-Dec-14 16:31N 37°49' E 023°12'5 9.9
2017-Dec-14 16:00N 37°53' E 023°07'8 8.1
2017-Dec-14 14:59N 37°57' E 022°58'3 5.4
2017-Dec-14 14:30N 37°58' E 022°56'5 9.5
2017-Dec-14 14:01N 38°01' E 022°50'5 9.8
2017-Dec-14 13:30N 38°03' E 022°45'329 9.9
2017-Dec-13 04:18N 37°53' E 015°48'3 9.5
2017-Dec-13 03:57N 37°54' E 015°44'5 9.7
2017-Dec-13 03:27N 37°56' E 015°39'4 9.5
2017-Dec-13 03:00N 37°58' E 015°34'5 9.5
2017-Dec-13 02:30N 38°02' E 015°34'5 9.5
2017-Dec-13 01:59N 38°07' E 015°35'4 8.8
2017-Dec-13 01:30N 38°11' E 015°36'4 7.4
2017-Dec-13 00:58N 38°15' E 015°38'4 7.9
2017-Dec-13 00:29N 38°18' E 015°41'4 8.5
2017-Dec-13 00:00N 38°22' E 015°42'4 8.0
2017-Dec-12 23:28N 38°26' E 015°44'4 7.9
2017-Dec-12 23:00N 38°30' E 015°45'5 9.3
2017-Dec-12 22:30N 38°34' E 015°46'10 8.3
2017-Dec-12 21:16N 38°43' E 015°53'  
2017-Dec-07 15:10N 38°21' E 015°43'2 8.7
2017-Dec-07 14:54N 38°19' E 015°42'3 8.0
2017-Dec-07 14:29N 38°16' E 015°41'3 6.7
2017-Dec-07 14:00N 38°14' E 015°37'4 7.7
2017-Dec-07 13:30N 38°10' E 015°37'4 8.2
2017-Dec-07 12:58N 38°06' E 015°36'4 8.3
2017-Dec-07 12:30N 38°02' E 015°36'4 7.8
2017-Dec-07 12:00N 37°58' E 015°37'4 7.9
2017-Dec-07 11:30N 37°55' E 015°40'  

Dump ship's entire track history